createdAt,value
2019-05-09T00:00:35.140Z,41.50
2019-05-09T00:01:10.466Z,39.60
2019-05-09T00:01:45.665Z,39.20
2019-05-09T00:02:21.080Z,38.20
2019-05-09T00:02:56.671Z,36.80
2019-05-09T00:03:33.532Z,35.00
2019-05-09T00:04:07.088Z,34.10
2019-05-09T00:04:43.898Z,35.10
2019-05-09T00:05:17.611Z,38.80
2019-05-09T00:05:54.166Z,38.20
2019-05-09T00:06:27.922Z,36.90
2019-05-09T00:07:03.648Z,33.10
2019-05-09T00:07:38.733Z,32.50
2019-05-09T00:08:14.077Z,38.20
2019-05-09T00:08:48.936Z,36.50
2019-05-09T00:09:24.363Z,35.40
2019-05-09T00:09:59.998Z,40.20
2019-05-09T00:10:39.510Z,37.50
2019-05-09T00:11:10.698Z,36.10
2019-05-09T00:11:46.107Z,39.90
2019-05-09T00:12:23.257Z,38.90
2019-05-09T00:12:57.029Z,32.70
2019-05-09T00:13:34.021Z,32.70
2019-05-09T00:14:07.737Z,34.30
2019-05-09T00:14:43.426Z,36.40
2019-05-09T00:15:18.589Z,41.10
2019-05-09T00:15:54.147Z,39.10
2019-05-09T00:16:29.512Z,38.80
2019-05-09T00:17:04.902Z,34.90
2019-05-09T00:17:40.124Z,36.70
2019-05-09T00:18:15.414Z,39.20
2019-05-09T00:18:50.930Z,38.00
2019-05-09T00:19:26.417Z,35.30
2019-05-09T00:20:03.516Z,33.00
2019-05-09T00:20:37.338Z,30.00
2019-05-09T00:21:13.457Z,28.50
2019-05-09T00:21:48.153Z,29.30
2019-05-09T00:22:24.010Z,33.60
2019-05-09T00:22:58.867Z,33.40
2019-05-09T00:23:34.075Z,33.70
2019-05-09T00:24:09.472Z,31.40
2019-05-09T00:24:44.892Z,28.90
2019-05-09T00:25:21.014Z,31.10
2019-05-09T00:25:55.457Z,35.50
2019-05-09T00:26:30.748Z,33.90
2019-05-09T00:27:05.972Z,31.70
2019-05-09T00:27:43.431Z,26.70
2019-05-09T00:28:16.664Z,32.80
2019-05-09T00:28:53.350Z,33.40
2019-05-09T00:29:27.362Z,29.40
2019-05-09T00:30:03.842Z,25.00
2019-05-09T00:30:38.103Z,27.10
2019-05-09T00:31:13.689Z,28.80
2019-05-09T00:31:48.802Z,30.60
2019-05-09T00:32:24.007Z,30.30
2019-05-09T00:32:59.131Z,30.80
2019-05-09T00:33:34.680Z,31.60
2019-05-09T00:34:09.886Z,27.60
2019-05-09T00:34:45.065Z,28.50
2019-05-09T00:35:23.221Z,28.10
2019-05-09T00:35:55.915Z,29.10
2019-05-09T00:36:33.349Z,26.40
2019-05-09T00:37:06.728Z,23.50
2019-05-09T00:37:43.181Z,31.20
2019-05-09T00:38:17.324Z,33.60
2019-05-09T00:38:53.672Z,29.50
2019-05-09T00:39:28.347Z,27.40
2019-05-09T00:40:04.013Z,24.30
2019-05-09T00:40:51.627Z,24.00
2019-05-09T00:41:14.151Z,25.70
2019-05-09T00:41:49.392Z,27.30
2019-05-09T00:42:24.697Z,25.60
2019-05-09T00:43:00.488Z,20.50
2019-05-09T00:43:35.602Z,18.60
2019-05-09T00:44:10.994Z,18.70
2019-05-09T00:44:46.344Z,22.30
2019-05-09T00:45:23.777Z,22.40
2019-05-09T00:45:56.880Z,22.80
2019-05-09T00:46:33.951Z,22.50
2019-05-09T00:47:07.593Z,21.80
2019-05-09T00:47:43.376Z,28.70
2019-05-09T00:48:18.093Z,30.40
2019-05-09T00:48:53.681Z,22.00
2019-05-09T00:49:28.908Z,20.90
2019-05-09T00:50:05.186Z,21.80
2019-05-09T00:50:39.953Z,22.90
2019-05-09T00:51:15.669Z,24.90
2019-05-09T00:51:51.387Z,27.90
2019-05-09T00:52:26.774Z,24.50
2019-05-09T00:53:03.108Z,22.90
2019-05-09T00:53:37.687Z,22.70
2019-05-09T00:54:13.512Z,22.40
2019-05-09T00:54:48.105Z,22.90
2019-05-09T00:55:23.922Z,23.00
2019-05-09T00:55:58.719Z,25.10
2019-05-09T00:56:33.864Z,20.00
2019-05-09T00:57:09.050Z,17.70
2019-05-09T00:57:44.386Z,19.50
2019-05-09T00:58:19.669Z,22.40
2019-05-09T00:58:55.006Z,22.90
2019-05-09T00:59:30.106Z,21.20
2019-05-09T01:00:05.627Z,15.10
2019-05-09T01:00:40.910Z,17.90
2019-05-09T01:01:16.256Z,22.30
2019-05-09T01:01:51.471Z,20.20
2019-05-09T01:02:26.599Z,19.10
2019-05-09T01:03:03.425Z,21.30
2019-05-09T01:03:37.321Z,21.40
2019-05-09T01:04:13.591Z,23.30
2019-05-09T01:04:47.950Z,25.10
2019-05-09T01:05:23.927Z,21.70
2019-05-09T01:05:58.881Z,17.50
2019-05-09T01:06:34.229Z,20.70
2019-05-09T01:07:09.317Z,19.50
2019-05-09T01:07:44.609Z,20.40
2019-05-09T01:08:19.932Z,18.10
2019-05-09T01:08:55.316Z,16.50
2019-05-09T01:09:30.742Z,20.70
2019-05-09T01:10:06.345Z,22.30
2019-05-09T01:10:43.500Z,20.00
2019-05-09T01:11:17.081Z,17.20
2019-05-09T01:11:53.360Z,15.70
2019-05-09T01:12:27.516Z,16.00
2019-05-09T01:13:03.641Z,15.10
2019-05-09T01:13:38.052Z,19.00
2019-05-09T01:14:14.239Z,17.30
2019-05-09T01:15:08.667Z,18.10
2019-05-09T01:15:44.286Z,14.80
2019-05-09T01:16:19.781Z,17.50
2019-05-09T01:16:55.737Z,18.10
2019-05-09T01:17:33.346Z,18.50
2019-05-09T01:18:06.671Z,17.80
2019-05-09T01:18:43.591Z,16.60
2019-05-09T01:19:17.294Z,14.00
2019-05-09T01:19:53.875Z,14.60
2019-05-09T01:20:28.212Z,16.10
2019-05-09T01:21:04.012Z,18.40
2019-05-09T01:21:38.921Z,20.20
2019-05-09T01:22:14.538Z,17.40
2019-05-09T01:22:49.983Z,14.80
2019-05-09T01:23:25.287Z,14.00
2019-05-09T01:24:00.596Z,17.20
2019-05-09T01:24:35.986Z,19.50
2019-05-09T01:25:13.303Z,18.40
2019-05-09T01:25:46.704Z,16.80
2019-05-09T01:26:23.625Z,14.90
2019-05-09T01:26:57.544Z,17.30
2019-05-09T01:27:33.928Z,16.10
2019-05-09T01:28:07.957Z,18.60
2019-05-09T01:28:44.252Z,21.10
2019-05-09T01:29:18.588Z,16.50
2019-05-09T01:29:53.909Z,15.40
2019-05-09T01:30:29.804Z,17.30
2019-05-09T01:31:05.331Z,18.40
2019-05-09T01:31:40.636Z,15.70
2019-05-09T01:32:16.189Z,18.10
2019-05-09T01:32:53.813Z,16.90
2019-05-09T01:33:26.813Z,14.70
2019-05-09T01:34:03.980Z,13.60
2019-05-09T01:34:37.120Z,17.60
2019-05-09T01:35:13.170Z,18.00
2019-05-09T01:35:47.634Z,15.50
2019-05-09T01:36:23.470Z,13.70
2019-05-09T01:36:58.155Z,16.20
2019-05-09T01:37:34.228Z,19.20
2019-05-09T01:38:09.099Z,18.70
2019-05-09T01:38:44.182Z,17.40
2019-05-09T01:39:19.697Z,16.30
2019-05-09T01:39:55.097Z,14.20
2019-05-09T01:40:30.510Z,14.80
2019-05-09T01:41:05.896Z,15.80
2019-05-09T01:41:43.204Z,17.30
2019-05-09T01:42:17.030Z,15.00
2019-05-09T01:42:53.801Z,13.70
2019-05-09T01:43:27.973Z,17.20
2019-05-09T01:44:04.124Z,14.80
2019-05-09T01:44:38.887Z,17.20
2019-05-09T01:45:14.263Z,19.70
2019-05-09T01:45:49.715Z,17.30
2019-05-09T01:46:25.156Z,15.50
2019-05-09T01:47:00.264Z,14.20
2019-05-09T01:47:35.393Z,13.60
2019-05-09T01:48:10.732Z,12.30
2019-05-09T01:48:45.859Z,15.50
2019-05-09T01:49:23.105Z,17.30
2019-05-09T01:49:56.462Z,13.30
2019-05-09T01:50:33.906Z,13.50
2019-05-09T01:51:06.885Z,15.00
2019-05-09T01:51:44.341Z,15.80
2019-05-09T01:52:17.908Z,14.70
2019-05-09T01:52:53.360Z,12.20
2019-05-09T01:53:28.556Z,15.50
2019-05-09T01:54:04.041Z,16.90
2019-05-09T01:54:39.265Z,14.60
2019-05-09T01:55:14.663Z,14.80
2019-05-09T01:55:50.008Z,14.10
2019-05-09T01:56:25.598Z,15.20
2019-05-09T01:57:02.754Z,16.60
2019-05-09T01:57:36.415Z,15.90
2019-05-09T01:58:13.766Z,15.90
2019-05-09T01:58:46.962Z,12.50
2019-05-09T01:59:24.096Z,11.80
2019-05-09T01:59:57.454Z,12.90
2019-05-09T02:00:33.177Z,14.20
2019-05-09T02:01:07.968Z,16.20
2019-05-09T02:01:43.523Z,11.50
2019-05-09T02:02:18.581Z,14.00
2019-05-09T02:02:54.396Z,17.40
2019-05-09T02:03:29.886Z,19.40
2019-05-09T02:04:05.623Z,14.50
2019-05-09T02:04:41.132Z,15.60
2019-05-09T02:05:16.460Z,14.60
2019-05-09T02:05:53.142Z,12.60
2019-05-09T02:06:27.085Z,18.10
2019-05-09T02:07:04.085Z,18.40
2019-05-09T02:07:37.699Z,14.90
2019-05-09T02:08:14.246Z,16.20
2019-05-09T02:08:48.308Z,14.00
2019-05-09T02:09:23.685Z,15.00
2019-05-09T02:09:59.045Z,12.70
2019-05-09T02:10:34.684Z,14.00
2019-05-09T02:11:09.955Z,20.60
2019-05-09T02:11:45.610Z,19.30
2019-05-09T02:12:20.255Z,12.00
2019-05-09T02:12:55.654Z,9.00
2019-05-09T02:13:30.877Z,11.80
2019-05-09T02:14:05.979Z,15.20
2019-05-09T02:14:43.536Z,14.80
2019-05-09T02:15:16.832Z,13.60
2019-05-09T02:15:53.707Z,12.20
2019-05-09T02:16:27.831Z,14.20
2019-05-09T02:17:03.384Z,16.90
2019-05-09T02:17:38.640Z,19.10
2019-05-09T02:18:13.859Z,16.80
2019-05-09T02:18:49.055Z,14.80
2019-05-09T02:19:24.177Z,15.60
2019-05-09T02:19:59.413Z,16.70
2019-05-09T02:20:34.934Z,15.80
2019-05-09T02:21:12.362Z,13.30
2019-05-09T02:21:45.882Z,13.30
2019-05-09T02:22:23.107Z,12.30
2019-05-09T02:22:56.783Z,13.50
2019-05-09T02:23:33.894Z,15.00
2019-05-09T02:24:07.793Z,17.70
2019-05-09T02:24:44.059Z,18.20
2019-05-09T02:25:18.424Z,17.50
2019-05-09T02:25:53.822Z,17.10
2019-05-09T02:26:29.220Z,11.00
2019-05-09T02:27:04.606Z,13.30
2019-05-09T02:27:40.017Z,15.50
2019-05-09T02:28:15.421Z,16.10
2019-05-09T02:28:51.141Z,14.10
2019-05-09T02:29:26.436Z,13.10
2019-05-09T02:30:05.410Z,12.00
2019-05-09T02:30:37.194Z,15.20
2019-05-09T02:31:15.739Z,15.50
2019-05-09T02:31:47.712Z,16.20
2019-05-09T02:32:24.021Z,13.50
2019-05-09T02:32:58.492Z,14.00
2019-05-09T02:33:34.666Z,14.70
2019-05-09T02:34:09.143Z,15.20
2019-05-09T02:34:44.395Z,17.50
2019-05-09T02:35:19.551Z,17.70
2019-05-09T02:36:00.801Z,17.40
2019-05-09T02:36:30.485Z,19.40
2019-05-09T02:37:05.583Z,15.70
2019-05-09T02:37:41.076Z,16.00
2019-05-09T02:38:19.213Z,16.30
2019-05-09T02:38:51.987Z,15.60
2019-05-09T02:39:29.389Z,15.70
2019-05-09T02:40:22.665Z,14.40
2019-05-09T02:40:59.458Z,13.90
2019-05-09T02:41:33.315Z,14.50
2019-05-09T02:42:13.377Z,16.00
2019-05-09T02:42:44.061Z,16.60
2019-05-09T02:43:19.710Z,20.30
2019-05-09T02:43:58.371Z,20.70
2019-05-09T02:44:30.626Z,17.00
2019-05-09T02:45:08.158Z,15.50
2019-05-09T02:45:40.926Z,17.20
2019-05-09T02:46:18.874Z,14.10
2019-05-09T02:46:51.758Z,22.60
2019-05-09T02:47:29.011Z,19.40
2019-05-09T02:48:02.871Z,21.30
2019-05-09T02:48:38.633Z,19.60
2019-05-09T02:49:13.575Z,15.60
2019-05-09T02:49:49.063Z,13.00
2019-05-09T02:50:24.480Z,14.20
2019-05-09T02:51:00.497Z,17.30
2019-05-09T02:51:34.922Z,18.10
2019-05-09T02:52:10.215Z,16.60
2019-05-09T02:52:48.328Z,15.20
2019-05-09T02:53:20.727Z,17.40
2019-05-09T02:53:58.326Z,18.00
2019-05-09T02:54:31.244Z,18.80
2019-05-09T02:55:09.381Z,14.90
2019-05-09T02:55:41.366Z,14.70
2019-05-09T02:56:18.735Z,15.80
2019-05-09T02:56:52.093Z,14.60
2019-05-09T02:57:29.311Z,15.70
2019-05-09T02:58:03.025Z,16.30
2019-05-09T02:58:38.811Z,18.10
2019-05-09T02:59:13.538Z,18.70
2019-05-09T02:59:49.248Z,17.60
2019-05-09T03:00:24.061Z,15.00
2019-05-09T03:00:59.823Z,13.80
2019-05-09T03:01:34.785Z,11.90
2019-05-09T03:02:10.374Z,15.70
2019-05-09T03:02:48.486Z,16.80
2019-05-09T03:03:20.876Z,15.80
2019-05-09T03:03:58.662Z,15.60
2019-05-09T03:04:31.488Z,16.60
2019-05-09T03:05:08.776Z,18.70
2019-05-09T03:05:42.495Z,19.10
2019-05-09T03:06:19.687Z,17.30
2019-05-09T03:06:53.411Z,17.60
2019-05-09T03:07:28.962Z,18.20
2019-05-09T03:08:04.148Z,16.00
2019-05-09T03:08:39.727Z,16.50
2019-05-09T03:09:15.239Z,14.30
2019-05-09T03:09:50.623Z,17.70
2019-05-09T03:10:28.987Z,19.30
2019-05-09T03:11:01.540Z,17.10
2019-05-09T03:11:38.747Z,16.00
2019-05-09T03:12:26.617Z,15.10
2019-05-09T03:12:50.188Z,15.10
2019-05-09T03:13:23.195Z,20.90
2019-05-09T03:13:58.856Z,21.10
2019-05-09T03:14:34.007Z,20.90
2019-05-09T03:15:10.132Z,17.60
2019-05-09T03:15:45.417Z,16.80
2019-05-09T03:16:20.757Z,17.30
2019-05-09T03:16:58.350Z,17.30
2019-05-09T03:17:31.078Z,20.30
2019-05-09T03:18:08.956Z,17.20
2019-05-09T03:18:41.669Z,20.20
2019-05-09T03:19:19.474Z,18.20
2019-05-09T03:19:52.370Z,16.40
2019-05-09T03:20:28.886Z,18.00
2019-05-09T03:21:03.187Z,17.50
2019-05-09T03:21:39.044Z,20.30
2019-05-09T03:22:13.909Z,19.60
2019-05-09T03:22:49.381Z,15.00
2019-05-09T03:23:24.640Z,15.60
2019-05-09T03:23:59.856Z,15.70
2019-05-09T03:24:35.074Z,17.00
2019-05-09T03:25:10.669Z,17.60
2019-05-09T03:25:48.447Z,16.30
2019-05-09T03:26:21.978Z,17.30
2019-05-09T03:26:59.564Z,15.90
2019-05-09T03:27:32.884Z,13.70
2019-05-09T03:28:09.607Z,14.00
2019-05-09T03:28:43.829Z,15.70
2019-05-09T03:29:19.239Z,17.80
2019-05-09T03:29:54.335Z,16.30
2019-05-09T03:30:29.773Z,16.60
2019-05-09T03:31:09.105Z,14.80
2019-05-09T03:31:40.787Z,16.70
2019-05-09T03:32:19.079Z,20.30
2019-05-09T03:32:51.397Z,19.60
2019-05-09T03:33:29.597Z,17.20
2019-05-09T03:34:02.066Z,14.00
2019-05-09T03:34:37.358Z,12.60
2019-05-09T03:35:12.670Z,15.50
2019-05-09T03:35:48.163Z,19.00
2019-05-09T03:36:23.056Z,19.00
2019-05-09T03:36:58.241Z,18.30
2019-05-09T03:37:33.459Z,18.10
2019-05-09T03:38:08.748Z,19.20
2019-05-09T03:38:44.199Z,20.30
2019-05-09T03:39:19.622Z,15.70
2019-05-09T03:39:54.941Z,11.30
2019-05-09T03:40:30.429Z,13.50
2019-05-09T03:41:08.322Z,16.10
2019-05-09T03:41:41.239Z,18.60
2019-05-09T03:42:18.932Z,20.30
2019-05-09T03:42:52.128Z,16.70
2019-05-09T03:43:27.501Z,16.80
2019-05-09T03:44:02.841Z,15.00
2019-05-09T03:44:38.556Z,18.10
2019-05-09T03:45:13.674Z,20.10
2019-05-09T03:45:49.009Z,20.60
2019-05-09T03:46:24.412Z,19.30
2019-05-09T03:46:59.946Z,15.80
2019-05-09T03:47:37.546Z,18.40
2019-05-09T03:48:10.974Z,20.20
2019-05-09T03:48:47.771Z,21.00
2019-05-09T03:49:21.574Z,19.10
2019-05-09T03:49:58.633Z,17.90
2019-05-09T03:50:32.304Z,17.90
2019-05-09T03:51:08.152Z,20.30
2019-05-09T03:51:43.219Z,20.50
2019-05-09T03:52:18.715Z,22.00
2019-05-09T03:52:54.034Z,23.70
2019-05-09T03:53:29.615Z,24.80
2019-05-09T03:54:05.130Z,25.60
2019-05-09T03:54:40.615Z,23.40
2019-05-09T03:55:17.713Z,18.50
2019-05-09T03:55:51.449Z,18.60
2019-05-09T03:56:27.355Z,21.10
2019-05-09T03:57:02.147Z,27.30
2019-05-09T03:57:37.458Z,24.50
2019-05-09T03:58:12.555Z,20.40
2019-05-09T03:58:47.994Z,16.40
2019-05-09T03:59:23.305Z,20.30
2019-05-09T03:59:58.619Z,22.20
2019-05-09T04:00:34.040Z,18.50
2019-05-09T04:01:10.795Z,19.70
2019-05-09T04:01:46.893Z,19.30
2019-05-09T04:02:19.954Z,19.60
2019-05-09T04:02:55.452Z,21.40
2019-05-09T04:03:30.767Z,23.50
2019-05-09T04:04:06.144Z,23.60
2019-05-09T04:04:41.468Z,20.40
2019-05-09T04:05:18.114Z,20.00
2019-05-09T04:05:58.646Z,19.90
2019-05-09T04:06:28.186Z,18.80
2019-05-09T04:07:02.744Z,18.20
2019-05-09T04:07:38.418Z,19.50
2019-05-09T04:08:13.242Z,16.40
2019-05-09T04:08:48.836Z,17.30
2019-05-09T04:09:24.127Z,20.70
2019-05-09T04:09:59.638Z,25.20
2019-05-09T04:10:34.862Z,24.00
2019-05-09T04:11:10.422Z,19.80
2019-05-09T04:11:45.708Z,18.10
2019-05-09T04:12:21.143Z,21.00
2019-05-09T04:12:59.302Z,20.10
2019-05-09T04:13:31.742Z,18.30
2019-05-09T04:14:08.296Z,22.10
2019-05-09T04:14:42.761Z,21.70
2019-05-09T04:15:19.158Z,16.80
2019-05-09T04:15:53.273Z,20.20
2019-05-09T04:16:28.699Z,26.30
2019-05-09T04:17:04.006Z,25.50
2019-05-09T04:17:39.094Z,20.00
2019-05-09T04:18:14.612Z,19.10
2019-05-09T04:18:49.724Z,22.80
2019-05-09T04:19:25.011Z,24.20
2019-05-09T04:20:00.334Z,20.00
2019-05-09T04:20:37.614Z,19.20
2019-05-09T04:21:11.148Z,19.00
2019-05-09T04:21:48.261Z,18.10
2019-05-09T04:22:21.496Z,20.70
2019-05-09T04:22:59.317Z,21.60
2019-05-09T04:23:32.089Z,19.60
2019-05-09T04:24:08.484Z,18.00
2019-05-09T04:24:42.890Z,19.50
2019-05-09T04:25:18.220Z,19.30
2019-05-09T04:25:53.423Z,23.50
2019-05-09T04:26:28.833Z,20.90
2019-05-09T04:27:04.059Z,19.80
2019-05-09T04:27:39.462Z,21.90
2019-05-09T04:28:14.654Z,21.90
2019-05-09T04:28:49.972Z,21.90
2019-05-09T04:29:25.715Z,24.60
2019-05-09T04:30:01.009Z,25.30
2019-05-09T04:30:37.340Z,24.70
2019-05-09T04:31:12.013Z,19.00
2019-05-09T04:31:48.364Z,16.90
2019-05-09T04:32:22.667Z,18.50
2019-05-09T04:32:58.172Z,22.40
2019-05-09T04:33:33.170Z,23.40
2019-05-09T04:34:09.859Z,25.10
2019-05-09T04:34:43.936Z,25.80
2019-05-09T04:35:19.209Z,23.20
2019-05-09T04:35:54.623Z,20.90
2019-05-09T04:36:29.736Z,20.90
2019-05-09T04:37:05.302Z,23.10
2019-05-09T04:37:40.673Z,21.90
2019-05-09T04:38:17.762Z,21.10
2019-05-09T04:38:51.176Z,20.50
2019-05-09T04:39:28.336Z,19.30
2019-05-09T04:40:03.315Z,20.30
2019-05-09T04:40:44.575Z,18.50
2019-05-09T04:41:16.359Z,21.80
2019-05-09T04:41:48.670Z,20.20
2019-05-09T04:42:23.108Z,19.90
2019-05-09T04:43:10.804Z,19.50
2019-05-09T04:43:36.758Z,16.30
2019-05-09T04:44:16.420Z,15.70
2019-05-09T04:44:48.980Z,17.80
2019-05-09T04:45:19.908Z,17.20
2019-05-09T04:45:55.207Z,16.40
2019-05-09T04:46:30.425Z,22.30
2019-05-09T04:47:05.826Z,16.30
2019-05-09T04:47:43.455Z,10.80
2019-05-09T04:48:20.310Z,12.50
2019-05-09T04:48:54.056Z,11.80
2019-05-09T04:49:29.692Z,12.80
2019-05-09T04:50:02.470Z,9.20
2019-05-09T04:50:38.032Z,8.50
2019-05-09T04:51:13.390Z,12.60
2019-05-09T04:51:48.504Z,12.60
2019-05-09T04:52:23.993Z,10.90
2019-05-09T04:52:59.301Z,10.50
2019-05-09T04:53:34.518Z,9.40
2019-05-09T04:54:09.925Z,9.90
2019-05-09T04:54:44.915Z,9.60
2019-05-09T04:55:20.132Z,7.90
2019-05-09T04:55:55.432Z,11.20
2019-05-09T04:56:30.657Z,12.70
2019-05-09T04:57:07.803Z,12.30
2019-05-09T04:57:41.175Z,10.90
2019-05-09T04:58:19.115Z,8.30
2019-05-09T04:58:51.923Z,6.00
2019-05-09T04:59:28.322Z,11.30
2019-05-09T05:00:02.637Z,13.80
2019-05-09T05:00:37.863Z,11.50
2019-05-09T05:01:13.262Z,9.00
2019-05-09T05:01:48.588Z,9.30
2019-05-09T05:02:24.206Z,12.70
2019-05-09T05:02:59.698Z,18.40
2019-05-09T05:03:35.006Z,16.00
2019-05-09T05:04:10.244Z,13.70
2019-05-09T05:04:47.699Z,12.60
2019-05-09T05:05:20.766Z,12.00
2019-05-09T05:05:58.187Z,12.80
2019-05-09T05:06:31.629Z,13.90
2019-05-09T05:07:07.642Z,10.50
2019-05-09T05:07:42.339Z,12.90
2019-05-09T05:08:18.173Z,16.60
2019-05-09T05:08:52.851Z,16.80
2019-05-09T05:09:28.194Z,16.60
2019-05-09T05:10:03.750Z,13.70
2019-05-09T05:10:38.746Z,11.30
2019-05-09T05:11:13.984Z,10.70
2019-05-09T05:11:49.566Z,11.50
2019-05-09T05:12:24.796Z,13.20
2019-05-09T05:13:00.129Z,12.00
2019-05-09T05:13:38.039Z,10.10
2019-05-09T05:14:10.735Z,8.90
2019-05-09T05:14:47.598Z,12.00
2019-05-09T05:15:21.680Z,14.30
2019-05-09T05:15:57.808Z,11.80
2019-05-09T05:16:32.196Z,10.40
2019-05-09T05:17:10.866Z,7.70
2019-05-09T05:17:42.900Z,6.70
2019-05-09T05:18:20.257Z,9.20
2019-05-09T05:18:53.706Z,12.00
2019-05-09T05:19:31.414Z,12.10
2019-05-09T05:20:04.669Z,11.30
2019-05-09T05:20:40.188Z,9.30
2019-05-09T05:21:15.377Z,10.30
2019-05-09T05:21:50.911Z,8.40
2019-05-09T05:22:28.196Z,8.50
2019-05-09T05:23:01.767Z,9.10
2019-05-09T05:23:38.064Z,7.90
2019-05-09T05:24:12.699Z,7.90
2019-05-09T05:24:48.745Z,9.30
2019-05-09T05:25:23.341Z,9.40
2019-05-09T05:25:58.854Z,10.90
2019-05-09T05:26:34.246Z,10.40
2019-05-09T05:27:09.590Z,7.60
2019-05-09T05:27:46.954Z,5.50
2019-05-09T05:28:20.115Z,14.80
2019-05-09T05:28:55.432Z,17.10
2019-05-09T05:29:30.820Z,8.90
2019-05-09T05:30:07.533Z,6.90
2019-05-09T05:30:41.279Z,8.50
2019-05-09T05:31:17.903Z,10.70
2019-05-09T05:31:51.486Z,8.30
2019-05-09T05:32:28.190Z,6.70
2019-05-09T05:33:02.337Z,6.70
2019-05-09T05:33:38.276Z,11.20
2019-05-09T05:34:13.186Z,11.60
2019-05-09T05:34:48.369Z,10.90
2019-05-09T05:35:23.600Z,8.00
2019-05-09T05:35:58.806Z,7.40
2019-05-09T05:36:34.439Z,8.00
2019-05-09T05:37:09.521Z,9.50
2019-05-09T05:37:44.837Z,8.30
2019-05-09T05:38:20.333Z,7.50
2019-05-09T05:38:55.647Z,7.00
2019-05-09T05:39:30.969Z,8.80
2019-05-09T05:40:07.782Z,10.90
2019-05-09T05:40:44.736Z,9.90
2019-05-09T05:41:18.302Z,8.30
2019-05-09T05:41:52.713Z,9.70
2019-05-09T05:42:28.237Z,11.10
2019-05-09T05:43:03.441Z,10.50
2019-05-09T05:43:43.983Z,13.60
2019-05-09T05:44:13.649Z,10.20
2019-05-09T05:44:49.271Z,7.10
2019-05-09T05:45:24.463Z,12.80
2019-05-09T05:45:59.589Z,14.70
2019-05-09T05:46:34.929Z,7.40
2019-05-09T05:47:10.042Z,8.10
2019-05-09T05:47:45.525Z,7.40
2019-05-09T05:48:21.139Z,6.50
2019-05-09T05:48:57.768Z,9.20
2019-05-09T05:49:31.785Z,7.80
2019-05-09T05:50:08.398Z,7.30
2019-05-09T05:50:42.515Z,9.30
2019-05-09T05:51:18.421Z,10.00
2019-05-09T05:51:53.894Z,8.50
2019-05-09T05:52:29.317Z,9.80
2019-05-09T05:53:04.903Z,9.40
2019-05-09T05:53:40.527Z,6.90
2019-05-09T05:54:18.013Z,5.30
2019-05-09T05:54:51.348Z,5.70
2019-05-09T05:55:27.441Z,7.20
2019-05-09T05:56:01.866Z,11.80
2019-05-09T05:56:38.233Z,9.10
2019-05-09T05:57:12.501Z,6.70
2019-05-09T05:57:47.913Z,7.40
2019-05-09T05:58:23.247Z,8.40
2019-05-09T05:58:58.852Z,6.90
2019-05-09T05:59:37.281Z,9.90
2019-05-09T06:00:09.487Z,9.40
2019-05-09T06:00:44.798Z,10.40
2019-05-09T06:01:20.337Z,9.10
2019-05-09T06:01:58.059Z,10.20
2019-05-09T06:02:31.407Z,11.10
2019-05-09T06:03:08.780Z,6.60
2019-05-09T06:03:42.425Z,5.70
2019-05-09T06:04:18.521Z,7.30
2019-05-09T06:04:53.228Z,9.50
2019-05-09T06:05:28.491Z,11.30
2019-05-09T06:06:03.892Z,9.20
2019-05-09T06:06:39.178Z,8.90
2019-05-09T06:07:14.697Z,10.10
2019-05-09T06:07:50.037Z,9.00
2019-05-09T06:08:27.437Z,10.10
2019-05-09T06:09:00.685Z,9.60
2019-05-09T06:09:37.918Z,8.50
2019-05-09T06:10:11.726Z,6.60
2019-05-09T06:10:48.334Z,8.60
2019-05-09T06:11:22.216Z,8.60
2019-05-09T06:11:57.899Z,8.70
2019-05-09T06:12:32.661Z,8.10
2019-05-09T06:13:08.051Z,10.80
2019-05-09T06:13:54.478Z,14.70
2019-05-09T06:14:18.871Z,10.50
2019-05-09T06:14:54.117Z,8.20
2019-05-09T06:15:29.608Z,9.00
2019-05-09T06:16:04.935Z,9.20
2019-05-09T06:16:40.224Z,9.50
2019-05-09T06:17:17.935Z,11.60
2019-05-09T06:17:51.097Z,12.90
2019-05-09T06:18:27.571Z,9.20
2019-05-09T06:19:02.048Z,7.50
2019-05-09T06:19:37.954Z,10.20
2019-05-09T06:20:12.223Z,9.70
2019-05-09T06:20:48.575Z,11.00
2019-05-09T06:21:23.208Z,8.90
2019-05-09T06:21:58.506Z,9.70
2019-05-09T06:22:33.740Z,10.00
2019-05-09T06:23:08.969Z,9.10
2019-05-09T06:23:44.485Z,10.40
2019-05-09T06:24:20.003Z,8.30
2019-05-09T06:24:55.557Z,8.00
2019-05-09T06:25:30.984Z,11.00
2019-05-09T06:26:09.372Z,11.80
2019-05-09T06:26:41.209Z,9.20
2019-05-09T06:27:18.105Z,9.40
2019-05-09T06:27:52.223Z,10.20
2019-05-09T06:28:27.549Z,8.60
2019-05-09T06:29:02.801Z,9.00
2019-05-09T06:29:38.664Z,9.70
2019-05-09T06:30:13.466Z,8.20
2019-05-09T06:30:48.996Z,7.80
2019-05-09T06:31:24.379Z,9.70
2019-05-09T06:31:59.707Z,8.00
2019-05-09T06:32:34.920Z,9.10
2019-05-09T06:33:10.140Z,9.70
2019-05-09T06:33:47.567Z,10.20
2019-05-09T06:34:20.523Z,10.30
2019-05-09T06:34:57.660Z,8.40
2019-05-09T06:35:31.258Z,7.70
2019-05-09T06:36:08.019Z,10.50
2019-05-09T06:36:42.099Z,14.90
2019-05-09T06:37:18.380Z,10.40
2019-05-09T06:37:52.803Z,8.80
2019-05-09T06:38:28.435Z,11.70
2019-05-09T06:39:03.612Z,16.10
2019-05-09T06:39:39.034Z,15.80
2019-05-09T06:40:14.468Z,10.50
2019-05-09T06:40:49.946Z,10.30
2019-05-09T06:41:25.263Z,10.30
2019-05-09T06:42:00.654Z,10.90
2019-05-09T06:42:38.109Z,11.80
2019-05-09T06:43:11.382Z,9.20
2019-05-09T06:43:49.511Z,10.30
2019-05-09T06:44:22.034Z,9.90
2019-05-09T06:44:58.449Z,8.40
2019-05-09T06:45:32.904Z,11.90
2019-05-09T06:46:08.330Z,13.20
2019-05-09T06:46:43.707Z,10.00
2019-05-09T06:47:19.029Z,8.30
2019-05-09T06:47:54.677Z,7.10
2019-05-09T06:48:29.844Z,9.30
2019-05-09T06:49:23.221Z,13.00
2019-05-09T06:49:40.784Z,10.60
2019-05-09T06:50:18.272Z,11.20
2019-05-09T06:50:51.742Z,6.70
2019-05-09T06:51:27.679Z,5.70
2019-05-09T06:52:02.615Z,10.20
2019-05-09T06:52:37.930Z,11.50
2019-05-09T06:53:13.357Z,12.70
2019-05-09T06:53:48.961Z,11.90
2019-05-09T06:54:24.565Z,9.20
2019-05-09T06:55:00.071Z,8.40
2019-05-09T06:55:35.343Z,8.80
2019-05-09T06:56:10.446Z,8.80
2019-05-09T06:56:47.448Z,7.80
2019-05-09T06:57:21.612Z,8.40
2019-05-09T06:57:58.376Z,9.20
2019-05-09T06:58:32.132Z,9.80
2019-05-09T06:59:07.775Z,8.20
2019-05-09T06:59:42.845Z,7.30
2019-05-09T07:00:18.340Z,7.50
2019-05-09T07:00:53.604Z,7.40
2019-05-09T07:01:29.019Z,8.80
2019-05-09T07:02:04.333Z,8.90
2019-05-09T07:02:39.958Z,8.50
2019-05-09T07:03:15.387Z,8.20
2019-05-09T07:03:51.012Z,7.30
2019-05-09T07:04:27.664Z,11.00
2019-05-09T07:05:01.561Z,12.30
2019-05-09T07:05:38.693Z,10.00
2019-05-09T07:06:12.423Z,8.90
2019-05-09T07:06:48.318Z,11.90
2019-05-09T07:07:23.149Z,12.90
2019-05-09T07:07:58.317Z,9.70
2019-05-09T07:08:33.514Z,10.40
2019-05-09T07:09:08.956Z,9.80
2019-05-09T07:09:44.291Z,10.20
2019-05-09T07:10:19.698Z,9.10
2019-05-09T07:10:55.111Z,7.40
2019-05-09T07:11:30.775Z,6.30
2019-05-09T07:12:07.965Z,6.70
2019-05-09T07:12:41.690Z,7.60
2019-05-09T07:13:18.266Z,9.10
2019-05-09T07:13:52.243Z,7.90
2019-05-09T07:14:32.318Z,8.10
2019-05-09T07:15:03.066Z,8.40
2019-05-09T07:15:38.514Z,10.90
2019-05-09T07:16:13.823Z,10.80
2019-05-09T07:16:48.959Z,6.70
2019-05-09T07:17:24.382Z,4.30
2019-05-09T07:17:59.804Z,6.30
2019-05-09T07:18:35.128Z,9.80
2019-05-09T07:19:10.952Z,8.70
2019-05-09T07:19:48.538Z,9.70
2019-05-09T07:20:21.670Z,8.30
2019-05-09T07:20:57.670Z,7.90
2019-05-09T07:21:32.829Z,10.50
2019-05-09T07:22:09.132Z,11.10
2019-05-09T07:22:43.299Z,8.10
2019-05-09T07:23:18.523Z,5.40
2019-05-09T07:23:53.749Z,6.50
2019-05-09T07:24:29.213Z,10.50
2019-05-09T07:25:07.667Z,11.70
2019-05-09T07:25:40.122Z,10.70
2019-05-09T07:26:17.738Z,7.00
2019-05-09T07:26:51.057Z,5.70
2019-05-09T07:27:28.427Z,6.90
2019-05-09T07:28:02.097Z,8.40
2019-05-09T07:28:37.718Z,6.60
2019-05-09T07:29:12.923Z,6.00
2019-05-09T07:29:48.181Z,8.00
2019-05-09T07:30:23.739Z,10.10
2019-05-09T07:30:59.120Z,9.00
2019-05-09T07:31:34.439Z,8.00
2019-05-09T07:32:09.735Z,8.80
2019-05-09T07:32:45.209Z,8.50
2019-05-09T07:33:20.512Z,7.50
2019-05-09T07:33:58.545Z,10.90
2019-05-09T07:34:30.879Z,9.80
2019-05-09T07:35:08.646Z,7.00
2019-05-09T07:35:41.715Z,7.40
2019-05-09T07:36:18.732Z,8.90
2019-05-09T07:36:52.852Z,10.00
2019-05-09T07:37:28.346Z,7.80
2019-05-09T07:38:03.611Z,7.60
2019-05-09T07:38:39.115Z,6.50
2019-05-09T07:39:14.543Z,8.20
2019-05-09T07:39:50.067Z,11.00